sensor_id;sensor_type;location;lat;lon;timestamp;P1;durP1;ratioP1;P2;durP2;ratioP2
51020;SDS011;38907;45.562;8.856;2023-05-09T00:03:44;21.58;;;15.73;;
51020;SDS011;38907;45.562;8.856;2023-05-09T00:08:47;20.70;;;13.53;;
51020;SDS011;38907;45.562;8.856;2023-05-09T00:13:49;16.80;;;12.60;;
51020;SDS011;38907;45.562;8.856;2023-05-09T00:18:52;14.85;;;11.65;;
51020;SDS011;38907;45.562;8.856;2023-05-09T00:23:56;17.70;;;12.00;;
51020;SDS011;38907;45.562;8.856;2023-05-09T00:28:59;13.60;;;11.02;;
51020;SDS011;38907;45.562;8.856;2023-05-09T00:34:01;12.75;;;10.82;;
51020;SDS011;38907;45.562;8.856;2023-05-09T00:39:04;12.00;;;9.63;;
51020;SDS011;38907;45.562;8.856;2023-05-09T00:44:07;13.05;;;9.25;;
51020;SDS011;38907;45.562;8.856;2023-05-09T00:49:08;13.47;;;8.93;;
51020;SDS011;38907;45.562;8.856;2023-05-09T00:59:15;11.13;;;8.27;;
51020;SDS011;38907;45.562;8.856;2023-05-09T01:04:17;10.53;;;8.50;;
51020;SDS011;38907;45.562;8.856;2023-05-09T01:09:22;9.67;;;8.40;;
51020;SDS011;38907;45.562;8.856;2023-05-09T01:14:30;12.43;;;8.77;;
51020;SDS011;38907;45.562;8.856;2023-05-09T01:25:24;12.48;;;9.68;;
51020;SDS011;38907;45.562;8.856;2023-05-09T01:30:39;12.73;;;10.10;;
51020;SDS011;38907;45.562;8.856;2023-05-09T01:35:45;13.15;;;9.73;;
51020;SDS011;38907;45.562;8.856;2023-05-09T01:40:52;12.35;;;9.68;;
51020;SDS011;38907;45.562;8.856;2023-05-09T01:45:56;11.35;;;8.50;;
51020;SDS011;38907;45.562;8.856;2023-05-09T01:50:59;11.02;;;8.93;;
51020;SDS011;38907;45.562;8.856;2023-05-09T01:56:03;13.40;;;8.80;;
51020;SDS011;38907;45.562;8.856;2023-05-09T02:01:07;10.57;;;8.93;;
51020;SDS011;38907;45.562;8.856;2023-05-09T02:06:09;10.52;;;7.95;;
51020;SDS011;38907;45.562;8.856;2023-05-09T02:16:15;12.30;;;7.40;;
51020;SDS011;38907;45.562;8.856;2023-05-09T02:21:17;11.60;;;7.55;;
51020;SDS011;38907;45.562;8.856;2023-05-09T02:26:19;11.37;;;7.60;;
51020;SDS011;38907;45.562;8.856;2023-05-09T02:31:23;10.30;;;7.40;;
51020;SDS011;38907;45.562;8.856;2023-05-09T02:36:28;10.45;;;7.63;;
51020;SDS011;38907;45.562;8.856;2023-05-09T02:41:30;10.05;;;7.50;;
51020;SDS011;38907;45.562;8.856;2023-05-09T02:46:34;11.00;;;7.70;;
51020;SDS011;38907;45.562;8.856;2023-05-09T02:51:35;9.60;;;8.38;;
51020;SDS011;38907;45.562;8.856;2023-05-09T02:56:38;8.90;;;7.87;;
51020;SDS011;38907;45.562;8.856;2023-05-09T03:01:41;11.35;;;8.10;;
51020;SDS011;38907;45.562;8.856;2023-05-09T03:06:43;10.32;;;7.85;;
51020;SDS011;38907;45.562;8.856;2023-05-09T03:11:45;14.75;;;8.13;;
51020;SDS011;38907;45.562;8.856;2023-05-09T03:16:48;10.65;;;8.63;;
51020;SDS011;38907;45.562;8.856;2023-05-09T03:21:50;13.43;;;9.07;;
51020;SDS011;38907;45.562;8.856;2023-05-09T03:26:52;13.20;;;8.90;;
51020;SDS011;38907;45.562;8.856;2023-05-09T03:31:55;10.93;;;8.95;;
51020;SDS011;38907;45.562;8.856;2023-05-09T03:36:57;14.70;;;9.43;;
51020;SDS011;38907;45.562;8.856;2023-05-09T03:41:59;11.83;;;9.27;;
51020;SDS011;38907;45.562;8.856;2023-05-09T03:47:02;16.50;;;10.02;;
51020;SDS011;38907;45.562;8.856;2023-05-09T03:52:04;14.73;;;10.30;;
51020;SDS011;38907;45.562;8.856;2023-05-09T03:57:06;15.45;;;10.15;;
51020;SDS011;38907;45.562;8.856;2023-05-09T04:02:09;16.40;;;10.82;;
51020;SDS011;38907;45.562;8.856;2023-05-09T04:07:11;12.77;;;10.43;;
51020;SDS011;38907;45.562;8.856;2023-05-09T04:12:13;13.93;;;10.82;;
51020;SDS011;38907;45.562;8.856;2023-05-09T04:17:16;15.27;;;10.95;;
51020;SDS011;38907;45.562;8.856;2023-05-09T04:22:18;20.73;;;11.63;;
51020;SDS011;38907;45.562;8.856;2023-05-09T04:27:20;17.58;;;11.57;;
51020;SDS011;38907;45.562;8.856;2023-05-09T04:32:24;16.07;;;11.97;;
51020;SDS011;38907;45.562;8.856;2023-05-09T04:37:26;15.32;;;11.57;;
51020;SDS011;38907;45.562;8.856;2023-05-09T04:42:27;19.33;;;11.10;;
51020;SDS011;38907;45.562;8.856;2023-05-09T04:47:33;14.63;;;10.60;;
51020;SDS011;38907;45.562;8.856;2023-05-09T04:52:35;14.25;;;11.40;;
51020;SDS011;38907;45.562;8.856;2023-05-09T04:57:37;13.73;;;11.13;;
51020;SDS011;38907;45.562;8.856;2023-05-09T05:02:40;15.43;;;10.88;;
51020;SDS011;38907;45.562;8.856;2023-05-09T05:07:42;11.88;;;10.10;;
51020;SDS011;38907;45.562;8.856;2023-05-09T05:12:44;16.67;;;10.60;;
51020;SDS011;38907;45.562;8.856;2023-05-09T05:17:47;14.68;;;10.60;;
51020;SDS011;38907;45.562;8.856;2023-05-09T05:22:49;14.75;;;9.82;;
51020;SDS011;38907;45.562;8.856;2023-05-09T05:27:51;17.00;;;10.98;;
51020;SDS011;38907;45.562;8.856;2023-05-09T05:32:55;14.00;;;10.50;;
51020;SDS011;38907;45.562;8.856;2023-05-09T05:37:57;15.27;;;11.43;;
51020;SDS011;38907;45.562;8.856;2023-05-09T05:42:58;18.20;;;11.13;;
51020;SDS011;38907;45.562;8.856;2023-05-09T05:48:02;19.30;;;12.43;;
51020;SDS011;38907;45.562;8.856;2023-05-09T05:53:04;14.50;;;11.27;;
51020;SDS011;38907;45.562;8.856;2023-05-09T05:58:06;15.50;;;11.43;;
51020;SDS011;38907;45.562;8.856;2023-05-09T06:03:09;16.40;;;11.00;;
51020;SDS011;38907;45.562;8.856;2023-05-09T06:08:13;13.18;;;10.82;;
51020;SDS011;38907;45.562;8.856;2023-05-09T06:13:15;12.57;;;9.65;;
51020;SDS011;38907;45.562;8.856;2023-05-09T06:18:18;12.52;;;8.50;;
51020;SDS011;38907;45.562;8.856;2023-05-09T06:23:20;10.68;;;8.10;;
51020;SDS011;38907;45.562;8.856;2023-05-09T06:28:22;11.38;;;6.95;;
51020;SDS011;38907;45.562;8.856;2023-05-09T06:33:25;8.20;;;6.03;;
51020;SDS011;38907;45.562;8.856;2023-05-09T06:38:27;7.43;;;6.10;;
51020;SDS011;38907;45.562;8.856;2023-05-09T06:43:29;7.75;;;6.72;;
51020;SDS011;38907;45.562;8.856;2023-05-09T06:48:32;9.20;;;5.68;;
51020;SDS011;38907;45.562;8.856;2023-05-09T06:53:34;7.43;;;5.65;;
51020;SDS011;38907;45.562;8.856;2023-05-09T06:58:36;7.63;;;5.50;;
51020;SDS011;38907;45.562;8.856;2023-05-09T07:03:39;7.40;;;6.15;;
51020;SDS011;38907;45.562;8.856;2023-05-09T07:08:41;7.70;;;6.18;;
51020;SDS011;38907;45.562;8.856;2023-05-09T07:13:43;6.85;;;5.63;;
51020;SDS011;38907;45.562;8.856;2023-05-09T07:18:46;7.32;;;5.45;;
51020;SDS011;38907;45.562;8.856;2023-05-09T07:23:48;8.88;;;5.90;;
51020;SDS011;38907;45.562;8.856;2023-05-09T07:28:50;8.43;;;5.55;;
51020;SDS011;38907;45.562;8.856;2023-05-09T07:33:53;10.45;;;6.05;;
51020;SDS011;38907;45.562;8.856;2023-05-09T07:38:55;10.55;;;6.20;;
51020;SDS011;38907;45.562;8.856;2023-05-09T07:43:57;7.80;;;6.22;;
51020;SDS011;38907;45.562;8.856;2023-05-09T07:49:00;9.25;;;6.63;;
51020;SDS011;38907;45.562;8.856;2023-05-09T07:54:02;10.00;;;6.65;;
51020;SDS011;38907;45.562;8.856;2023-05-09T07:59:04;9.50;;;6.65;;
51020;SDS011;38907;45.562;8.856;2023-05-09T08:04:07;10.32;;;7.60;;
51020;SDS011;38907;45.562;8.856;2023-05-09T08:09:09;8.50;;;6.55;;
51020;SDS011;38907;45.562;8.856;2023-05-09T08:14:11;11.05;;;7.20;;
51020;SDS011;38907;45.562;8.856;2023-05-09T08:19:14;11.38;;;7.13;;
51020;SDS011;38907;45.562;8.856;2023-05-09T08:24:16;9.07;;;7.63;;
51020;SDS011;38907;45.562;8.856;2023-05-09T08:29:18;11.20;;;7.80;;
51020;SDS011;38907;45.562;8.856;2023-05-09T08:34:21;12.75;;;7.55;;
51020;SDS011;38907;45.562;8.856;2023-05-09T08:39:23;12.30;;;8.45;;
51020;SDS011;38907;45.562;8.856;2023-05-09T08:44:25;7.73;;;6.63;;
51020;SDS011;38907;45.562;8.856;2023-05-09T08:49:30;7.70;;;6.63;;
51020;SDS011;38907;45.562;8.856;2023-05-09T08:54:32;9.15;;;7.65;;
51020;SDS011;38907;45.562;8.856;2023-05-09T08:59:36;14.35;;;7.38;;
51020;SDS011;38907;45.562;8.856;2023-05-09T09:04:41;8.73;;;6.88;;
51020;SDS011;38907;45.562;8.856;2023-05-09T09:09:45;7.47;;;5.95;;
51020;SDS011;38907;45.562;8.856;2023-05-09T09:14:50;7.78;;;6.32;;
51020;SDS011;38907;45.562;8.856;2023-05-09T09:19:57;8.02;;;6.10;;
51020;SDS011;38907;45.562;8.856;2023-05-09T09:25:00;6.57;;;5.22;;
51020;SDS011;38907;45.562;8.856;2023-05-09T09:30:06;8.10;;;6.47;;
51020;SDS011;38907;45.562;8.856;2023-05-09T09:35:10;7.90;;;5.63;;
51020;SDS011;38907;45.562;8.856;2023-05-09T09:40:12;9.85;;;6.68;;
51020;SDS011;38907;45.562;8.856;2023-05-09T09:45:15;6.85;;;5.43;;
51020;SDS011;38907;45.562;8.856;2023-05-09T09:50:19;7.00;;;5.65;;
51020;SDS011;38907;45.562;8.856;2023-05-09T09:55:22;8.85;;;5.93;;
51020;SDS011;38907;45.562;8.856;2023-05-09T10:05:29;8.35;;;6.65;;
51020;SDS011;38907;45.562;8.856;2023-05-09T10:10:33;8.40;;;6.72;;
51020;SDS011;38907;45.562;8.856;2023-05-09T10:15:36;7.93;;;6.63;;
51020;SDS011;38907;45.562;8.856;2023-05-09T10:20:40;10.18;;;8.10;;
51020;SDS011;38907;45.562;8.856;2023-05-09T10:25:45;9.25;;;6.63;;
51020;SDS011;38907;45.562;8.856;2023-05-09T10:30:54;8.13;;;6.53;;
51020;SDS011;38907;45.562;8.856;2023-05-09T10:36:01;7.53;;;6.45;;
51020;SDS011;38907;45.562;8.856;2023-05-09T10:41:04;9.43;;;6.72;;
51020;SDS011;38907;45.562;8.856;2023-05-09T10:46:06;10.20;;;6.88;;
51020;SDS011;38907;45.562;8.856;2023-05-09T10:51:09;8.63;;;7.15;;
51020;SDS011;38907;45.562;8.856;2023-05-09T10:56:22;6.93;;;6.18;;
51020;SDS011;38907;45.562;8.856;2023-05-09T11:01:27;7.22;;;6.18;;
51020;SDS011;38907;45.562;8.856;2023-05-09T11:06:42;7.43;;;6.50;;
51020;SDS011;38907;45.562;8.856;2023-05-09T11:11:51;8.00;;;7.10;;
51020;SDS011;38907;45.562;8.856;2023-05-09T11:16:56;10.10;;;7.28;;
51020;SDS011;38907;45.562;8.856;2023-05-09T11:22:01;10.25;;;6.90;;
51020;SDS011;38907;45.562;8.856;2023-05-09T11:27:14;10.13;;;8.48;;
51020;SDS011;38907;45.562;8.856;2023-05-09T11:32:17;10.57;;;8.25;;
51020;SDS011;38907;45.562;8.856;2023-05-09T11:37:21;12.02;;;8.52;;
51020;SDS011;38907;45.562;8.856;2023-05-09T11:42:23;11.50;;;8.32;;
51020;SDS011;38907;45.562;8.856;2023-05-09T11:52:31;8.15;;;6.75;;
51020;SDS011;38907;45.562;8.856;2023-05-09T11:57:33;8.48;;;7.30;;
51020;SDS011;38907;45.562;8.856;2023-05-09T12:02:36;8.13;;;6.65;;
51020;SDS011;38907;45.562;8.856;2023-05-09T12:07:40;9.00;;;7.10;;
51020;SDS011;38907;45.562;8.856;2023-05-09T12:12:42;10.13;;;7.07;;
51020;SDS011;38907;45.562;8.856;2023-05-09T12:17:46;9.25;;;7.70;;
51020;SDS011;38907;45.562;8.856;2023-05-09T12:23:01;9.50;;;7.15;;
51020;SDS011;38907;45.562;8.856;2023-05-09T12:28:04;11.57;;;7.78;;
51020;SDS011;38907;45.562;8.856;2023-05-09T12:33:06;11.48;;;7.22;;
51020;SDS011;38907;45.562;8.856;2023-05-09T12:38:12;8.50;;;7.60;;
51020;SDS011;38907;45.562;8.856;2023-05-09T12:43:16;13.75;;;8.60;;
51020;SDS011;38907;45.562;8.856;2023-05-09T12:48:18;14.65;;;8.52;;
51020;SDS011;38907;45.562;8.856;2023-05-09T12:53:24;10.50;;;8.30;;
51020;SDS011;38907;45.562;8.856;2023-05-09T12:58:29;9.68;;;8.55;;
51020;SDS011;38907;45.562;8.856;2023-05-09T13:03:32;10.57;;;8.82;;
51020;SDS011;38907;45.562;8.856;2023-05-09T13:08:38;10.30;;;8.45;;
51020;SDS011;38907;45.562;8.856;2023-05-09T13:13:40;11.95;;;8.40;;
51020;SDS011;38907;45.562;8.856;2023-05-09T13:18:42;13.32;;;10.25;;
51020;SDS011;38907;45.562;8.856;2023-05-09T13:23:46;10.63;;;9.02;;
51020;SDS011;38907;45.562;8.856;2023-05-09T13:28:49;13.88;;;8.90;;
51020;SDS011;38907;45.562;8.856;2023-05-09T13:38:55;11.38;;;8.50;;
51020;SDS011;38907;45.562;8.856;2023-05-09T13:43:57;12.77;;;8.27;;
51020;SDS011;38907;45.562;8.856;2023-05-09T13:48:59;10.63;;;9.05;;
51020;SDS011;38907;45.562;8.856;2023-05-09T13:54:03;12.40;;;10.45;;
51020;SDS011;38907;45.562;8.856;2023-05-09T13:59:11;16.58;;;9.98;;
51020;SDS011;38907;45.562;8.856;2023-05-09T14:04:13;10.82;;;9.18;;
51020;SDS011;38907;45.562;8.856;2023-05-09T14:09:16;12.57;;;9.43;;
51020;SDS011;38907;45.562;8.856;2023-05-09T14:14:21;14.23;;;9.00;;
51020;SDS011;38907;45.562;8.856;2023-05-09T14:19:25;9.32;;;8.30;;
51020;SDS011;38907;45.562;8.856;2023-05-09T14:24:28;17.35;;;8.00;;
51020;SDS011;38907;45.562;8.856;2023-05-09T14:29:32;12.18;;;8.05;;
51020;SDS011;38907;45.562;8.856;2023-05-09T14:34:35;9.70;;;8.15;;
51020;SDS011;38907;45.562;8.856;2023-05-09T14:39:39;10.85;;;8.38;;
51020;SDS011;38907;45.562;8.856;2023-05-09T14:44:42;12.02;;;7.72;;
51020;SDS011;38907;45.562;8.856;2023-05-09T14:49:46;12.93;;;7.63;;
51020;SDS011;38907;45.562;8.856;2023-05-09T14:54:49;10.83;;;7.60;;
51020;SDS011;38907;45.562;8.856;2023-05-09T14:59:51;8.65;;;6.97;;
51020;SDS011;38907;45.562;8.856;2023-05-09T15:04:54;10.65;;;8.43;;
51020;SDS011;38907;45.562;8.856;2023-05-09T15:09:57;13.90;;;7.37;;
51020;SDS011;38907;45.562;8.856;2023-05-09T15:15:10;12.68;;;8.57;;
51020;SDS011;38907;45.562;8.856;2023-05-09T15:20:13;23.35;;;13.63;;
51020;SDS011;38907;45.562;8.856;2023-05-09T15:25:17;16.02;;;9.88;;
51020;SDS011;38907;45.562;8.856;2023-05-09T15:30:20;9.02;;;7.13;;
51020;SDS011;38907;45.562;8.856;2023-05-09T15:35:23;11.80;;;9.00;;
51020;SDS011;38907;45.562;8.856;2023-05-09T15:40:27;13.13;;;9.23;;
51020;SDS011;38907;45.562;8.856;2023-05-09T15:45:29;13.85;;;10.35;;
51020;SDS011;38907;45.562;8.856;2023-05-09T15:50:31;17.35;;;11.20;;
51020;SDS011;38907;45.562;8.856;2023-05-09T15:55:34;13.68;;;9.98;;
51020;SDS011;38907;45.562;8.856;2023-05-09T16:00:36;23.70;;;19.50;;
51020;SDS011;38907;45.562;8.856;2023-05-09T16:05:39;29.73;;;21.58;;
51020;SDS011;38907;45.562;8.856;2023-05-09T16:15:48;15.73;;;9.60;;
51020;SDS011;38907;45.562;8.856;2023-05-09T16:20:50;14.35;;;10.30;;
51020;SDS011;38907;45.562;8.856;2023-05-09T16:25:54;18.42;;;10.48;;
51020;SDS011;38907;45.562;8.856;2023-05-09T16:30:56;14.60;;;9.70;;
51020;SDS011;38907;45.562;8.856;2023-05-09T16:35:59;13.57;;;9.15;;
51020;SDS011;38907;45.562;8.856;2023-05-09T16:41:02;10.47;;;8.40;;
51020;SDS011;38907;45.562;8.856;2023-05-09T16:46:04;12.40;;;9.50;;
51020;SDS011;38907;45.562;8.856;2023-05-09T16:51:06;13.57;;;8.90;;
51020;SDS011;38907;45.562;8.856;2023-05-09T16:56:10;14.68;;;9.23;;
51020;SDS011;38907;45.562;8.856;2023-05-09T17:01:12;11.07;;;8.48;;
51020;SDS011;38907;45.562;8.856;2023-05-09T17:06:14;19.00;;;10.07;;
51020;SDS011;38907;45.562;8.856;2023-05-09T17:11:17;13.23;;;10.50;;
51020;SDS011;38907;45.562;8.856;2023-05-09T17:16:20;14.02;;;10.65;;
51020;SDS011;38907;45.562;8.856;2023-05-09T17:21:22;18.87;;;11.47;;
51020;SDS011;38907;45.562;8.856;2023-05-09T17:26:25;15.87;;;10.97;;
51020;SDS011;38907;45.562;8.856;2023-05-09T17:31:28;17.23;;;11.10;;
51020;SDS011;38907;45.562;8.856;2023-05-09T17:36:30;13.85;;;11.30;;
51020;SDS011;38907;45.562;8.856;2023-05-09T17:41:33;12.83;;;11.07;;
51020;SDS011;38907;45.562;8.856;2023-05-09T17:46:35;13.43;;;10.50;;
51020;SDS011;38907;45.562;8.856;2023-05-09T17:51:37;13.40;;;10.73;;
51020;SDS011;38907;45.562;8.856;2023-05-09T17:56:40;15.47;;;10.97;;
51020;SDS011;38907;45.562;8.856;2023-05-09T18:01:42;15.25;;;11.90;;
51020;SDS011;38907;45.562;8.856;2023-05-09T18:06:44;18.23;;;12.57;;
51020;SDS011;38907;45.562;8.856;2023-05-09T18:11:48;17.65;;;12.82;;
51020;SDS011;38907;45.562;8.856;2023-05-09T18:16:49;16.98;;;13.05;;
51020;SDS011;38907;45.562;8.856;2023-05-09T18:21:51;16.23;;;13.13;;
51020;SDS011;38907;45.562;8.856;2023-05-09T18:26:55;20.38;;;14.15;;
51020;SDS011;38907;45.562;8.856;2023-05-09T18:31:57;18.38;;;13.50;;
51020;SDS011;38907;45.562;8.856;2023-05-09T18:36:58;15.88;;;12.30;;
51020;SDS011;38907;45.562;8.856;2023-05-09T18:42:02;15.70;;;12.00;;
51020;SDS011;38907;45.562;8.856;2023-05-09T18:47:05;12.55;;;10.20;;
51020;SDS011;38907;45.562;8.856;2023-05-09T18:52:07;11.82;;;9.80;;
51020;SDS011;38907;45.562;8.856;2023-05-09T18:57:11;11.88;;;8.77;;
51020;SDS011;38907;45.562;8.856;2023-05-09T19:02:13;11.63;;;9.40;;
51020;SDS011;38907;45.562;8.856;2023-05-09T19:07:15;12.70;;;11.35;;
51020;SDS011;38907;45.562;8.856;2023-05-09T19:12:19;18.08;;;12.45;;
51020;SDS011;38907;45.562;8.856;2023-05-09T19:17:21;15.68;;;12.73;;
51020;SDS011;38907;45.562;8.856;2023-05-09T19:22:23;15.32;;;13.30;;
51020;SDS011;38907;45.562;8.856;2023-05-09T19:27:26;18.97;;;13.47;;
51020;SDS011;38907;45.562;8.856;2023-05-09T19:32:28;15.60;;;13.32;;
51020;SDS011;38907;45.562;8.856;2023-05-09T19:37:30;15.23;;;13.60;;
51020;SDS011;38907;45.562;8.856;2023-05-09T19:42:33;19.67;;;15.52;;
51020;SDS011;38907;45.562;8.856;2023-05-09T19:47:36;16.75;;;14.75;;
51020;SDS011;38907;45.562;8.856;2023-05-09T19:52:38;21.02;;;16.23;;
51020;SDS011;38907;45.562;8.856;2023-05-09T19:57:42;20.80;;;16.10;;
51020;SDS011;38907;45.562;8.856;2023-05-09T20:02:44;20.25;;;17.00;;
51020;SDS011;38907;45.562;8.856;2023-05-09T20:07:46;21.83;;;18.43;;
51020;SDS011;38907;45.562;8.856;2023-05-09T20:12:49;24.10;;;19.58;;
51020;SDS011;38907;45.562;8.856;2023-05-09T20:17:52;24.58;;;19.70;;
51020;SDS011;38907;45.562;8.856;2023-05-09T20:22:53;18.58;;;14.98;;
51020;SDS011;38907;45.562;8.856;2023-05-09T20:27:57;18.50;;;15.07;;
51020;SDS011;38907;45.562;8.856;2023-05-09T20:32:59;18.02;;;14.27;;
51020;SDS011;38907;45.562;8.856;2023-05-09T20:43:06;20.45;;;14.65;;
51020;SDS011;38907;45.562;8.856;2023-05-09T20:48:08;17.20;;;14.02;;
51020;SDS011;38907;45.562;8.856;2023-05-09T20:53:09;18.45;;;14.18;;
51020;SDS011;38907;45.562;8.856;2023-05-09T20:58:13;16.13;;;13.23;;
51020;SDS011;38907;45.562;8.856;2023-05-09T21:03:15;17.55;;;13.30;;
51020;SDS011;38907;45.562;8.856;2023-05-09T21:08:17;18.77;;;14.07;;
51020;SDS011;38907;45.562;8.856;2023-05-09T21:13:20;17.83;;;13.38;;
51020;SDS011;38907;45.562;8.856;2023-05-09T21:18:22;18.35;;;14.02;;
51020;SDS011;38907;45.562;8.856;2023-05-09T21:23:24;22.02;;;12.65;;
51020;SDS011;38907;45.562;8.856;2023-05-09T21:28:27;15.68;;;11.90;;
51020;SDS011;38907;45.562;8.856;2023-05-09T21:33:29;16.75;;;11.50;;
51020;SDS011;38907;45.562;8.856;2023-05-09T21:38:31;14.95;;;10.80;;
51020;SDS011;38907;45.562;8.856;2023-05-09T21:43:34;14.07;;;11.38;;
51020;SDS011;38907;45.562;8.856;2023-05-09T21:53:38;14.48;;;10.82;;
51020;SDS011;38907;45.562;8.856;2023-05-09T21:58:41;15.90;;;11.77;;
51020;SDS011;38907;45.562;8.856;2023-05-09T22:08:45;15.18;;;12.25;;
51020;SDS011;38907;45.562;8.856;2023-05-09T22:13:48;18.65;;;14.77;;
51020;SDS011;38907;45.562;8.856;2023-05-09T22:18:50;25.15;;;16.90;;
51020;SDS011;38907;45.562;8.856;2023-05-09T22:23:52;18.97;;;16.13;;
51020;SDS011;38907;45.562;8.856;2023-05-09T22:28:56;17.73;;;15.15;;
51020;SDS011;38907;45.562;8.856;2023-05-09T22:38:59;18.08;;;13.80;;
51020;SDS011;38907;45.562;8.856;2023-05-09T22:44:02;18.35;;;13.73;;
51020;SDS011;38907;45.562;8.856;2023-05-09T22:49:04;17.75;;;14.13;;
51020;SDS011;38907;45.562;8.856;2023-05-09T22:54:06;19.65;;;13.68;;
51020;SDS011;38907;45.562;8.856;2023-05-09T22:59:10;16.30;;;13.15;;
51020;SDS011;38907;45.562;8.856;2023-05-09T23:09:13;14.77;;;12.27;;
51020;SDS011;38907;45.562;8.856;2023-05-09T23:14:16;13.13;;;10.88;;
51020;SDS011;38907;45.562;8.856;2023-05-09T23:24:20;14.27;;;11.43;;
51020;SDS011;38907;45.562;8.856;2023-05-09T23:29:23;14.05;;;10.60;;
51020;SDS011;38907;45.562;8.856;2023-05-09T23:34:25;15.10;;;11.77;;
51020;SDS011;38907;45.562;8.856;2023-05-09T23:39:28;16.17;;;12.23;;
51020;SDS011;38907;45.562;8.856;2023-05-09T23:44:32;15.20;;;11.17;;
51020;SDS011;38907;45.562;8.856;2023-05-09T23:49:34;16.00;;;11.25;;
51020;SDS011;38907;45.562;8.856;2023-05-09T23:54:36;16.25;;;12.60;;
51020;SDS011;38907;45.562;8.856;2023-05-09T23:59:40;17.88;;;12.15;;
